sensor_id;sensor_type;location;lat;lon;timestamp;P1;durP1;ratioP1;P2;durP2;ratioP2
6679;SDS011;3376;42.664;23.346;2024-03-29T00:01:18;1.03;;;0.93;;
6679;SDS011;3376;42.664;23.346;2024-03-29T00:04:43;1.77;;;1.03;;
6679;SDS011;3376;42.664;23.346;2024-03-29T00:08:07;1.70;;;0.90;;
6679;SDS011;3376;42.664;23.346;2024-03-29T00:11:36;2.07;;;0.67;;
6679;SDS011;3376;42.664;23.346;2024-03-29T00:15:01;2.43;;;0.80;;
6679;SDS011;3376;42.664;23.346;2024-03-29T00:18:26;1.13;;;1.03;;
6679;SDS011;3376;42.664;23.346;2024-03-29T00:21:51;2.27;;;1.10;;
6679;SDS011;3376;42.664;23.346;2024-03-29T00:25:17;3.70;;;0.80;;
6679;SDS011;3376;42.664;23.346;2024-03-29T00:28:44;1.00;;;0.90;;
6679;SDS011;3376;42.664;23.346;2024-03-29T00:32:10;2.30;;;1.00;;
6679;SDS011;3376;42.664;23.346;2024-03-29T00:35:35;2.60;;;0.93;;
6679;SDS011;3376;42.664;23.346;2024-03-29T00:38:59;2.97;;;1.10;;
6679;SDS011;3376;42.664;23.346;2024-03-29T00:42:24;1.10;;;0.97;;
6679;SDS011;3376;42.664;23.346;2024-03-29T00:45:52;3.70;;;1.00;;
6679;SDS011;3376;42.664;23.346;2024-03-29T00:49:16;0.77;;;0.77;;
6679;SDS011;3376;42.664;23.346;2024-03-29T00:52:41;1.40;;;1.00;;
6679;SDS011;3376;42.664;23.346;2024-03-29T00:56:05;1.70;;;0.97;;
6679;SDS011;3376;42.664;23.346;2024-03-29T00:59:30;1.20;;;1.00;;
6679;SDS011;3376;42.664;23.346;2024-03-29T01:02:57;3.67;;;0.87;;
6679;SDS011;3376;42.664;23.346;2024-03-29T01:06:21;1.57;;;0.80;;
6679;SDS011;3376;42.664;23.346;2024-03-29T01:09:45;1.70;;;0.73;;
6679;SDS011;3376;42.664;23.346;2024-03-29T01:13:11;0.80;;;0.80;;
6679;SDS011;3376;42.664;23.346;2024-03-29T01:16:36;0.83;;;0.60;;
6679;SDS011;3376;42.664;23.346;2024-03-29T01:20:02;0.93;;;0.90;;
6679;SDS011;3376;42.664;23.346;2024-03-29T01:23:27;5.00;;;1.20;;
6679;SDS011;3376;42.664;23.346;2024-03-29T01:26:53;2.53;;;1.20;;
6679;SDS011;3376;42.664;23.346;2024-03-29T01:30:20;1.20;;;1.10;;
6679;SDS011;3376;42.664;23.346;2024-03-29T01:33:45;1.03;;;0.97;;
6679;SDS011;3376;42.664;23.346;2024-03-29T01:37:11;5.77;;;1.73;;
6679;SDS011;3376;42.664;23.346;2024-03-29T01:40:35;2.17;;;1.50;;
6679;SDS011;3376;42.664;23.346;2024-03-29T01:44:00;1.70;;;1.60;;
6679;SDS011;3376;42.664;23.346;2024-03-29T01:47:27;1.87;;;1.33;;
6679;SDS011;3376;42.664;23.346;2024-03-29T01:50:54;1.63;;;1.30;;
6679;SDS011;3376;42.664;23.346;2024-03-29T01:54:22;3.67;;;0.90;;
6679;SDS011;3376;42.664;23.346;2024-03-29T01:57:48;1.90;;;1.07;;
6679;SDS011;3376;42.664;23.346;2024-03-29T02:01:16;3.60;;;1.20;;
6679;SDS011;3376;42.664;23.346;2024-03-29T02:04:42;4.90;;;1.67;;
6679;SDS011;3376;42.664;23.346;2024-03-29T02:08:09;10.00;;;1.63;;
6679;SDS011;3376;42.664;23.346;2024-03-29T02:11:37;3.80;;;1.40;;
6679;SDS011;3376;42.664;23.346;2024-03-29T02:15:03;1.37;;;1.10;;
6679;SDS011;3376;42.664;23.346;2024-03-29T02:18:30;1.90;;;1.23;;
6679;SDS011;3376;42.664;23.346;2024-03-29T02:21:55;1.77;;;1.33;;
6679;SDS011;3376;42.664;23.346;2024-03-29T02:25:28;3.60;;;1.20;;
6679;SDS011;3376;42.664;23.346;2024-03-29T02:28:57;3.50;;;1.53;;
6679;SDS011;3376;42.664;23.346;2024-03-29T02:32:22;1.60;;;1.50;;
6679;SDS011;3376;42.664;23.346;2024-03-29T02:35:48;2.40;;;1.47;;
6679;SDS011;3376;42.664;23.346;2024-03-29T02:39:13;3.23;;;1.30;;
6679;SDS011;3376;42.664;23.346;2024-03-29T02:42:41;3.33;;;1.37;;
6679;SDS011;3376;42.664;23.346;2024-03-29T02:46:07;3.70;;;1.43;;
6679;SDS011;3376;42.664;23.346;2024-03-29T02:49:34;1.30;;;1.20;;
6679;SDS011;3376;42.664;23.346;2024-03-29T02:52:58;2.17;;;1.57;;
6679;SDS011;3376;42.664;23.346;2024-03-29T02:56:24;1.53;;;1.33;;
6679;SDS011;3376;42.664;23.346;2024-03-29T02:59:51;3.97;;;1.80;;
6679;SDS011;3376;42.664;23.346;2024-03-29T03:03:15;2.33;;;1.50;;
6679;SDS011;3376;42.664;23.346;2024-03-29T03:06:42;5.53;;;2.00;;
6679;SDS011;3376;42.664;23.346;2024-03-29T03:10:26;2.93;;;1.50;;
6679;SDS011;3376;42.664;23.346;2024-03-29T03:13:53;3.87;;;1.40;;
6679;SDS011;3376;42.664;23.346;2024-03-29T03:17:20;3.20;;;1.43;;
6679;SDS011;3376;42.664;23.346;2024-03-29T03:20:50;5.37;;;1.70;;
6679;SDS011;3376;42.664;23.346;2024-03-29T03:24:17;1.67;;;1.57;;
6679;SDS011;3376;42.664;23.346;2024-03-29T03:27:44;2.00;;;1.30;;
6679;SDS011;3376;42.664;23.346;2024-03-29T03:31:11;1.83;;;1.67;;
6679;SDS011;3376;42.664;23.346;2024-03-29T03:34:35;1.80;;;1.70;;
6679;SDS011;3376;42.664;23.346;2024-03-29T03:38:01;2.43;;;1.40;;
6679;SDS011;3376;42.664;23.346;2024-03-29T03:41:26;2.97;;;1.30;;
6679;SDS011;3376;42.664;23.346;2024-03-29T03:44:51;1.30;;;1.20;;
6679;SDS011;3376;42.664;23.346;2024-03-29T03:48:18;1.70;;;1.50;;
6679;SDS011;3376;42.664;23.346;2024-03-29T03:51:43;2.90;;;1.67;;
6679;SDS011;3376;42.664;23.346;2024-03-29T03:55:09;3.87;;;1.30;;
6679;SDS011;3376;42.664;23.346;2024-03-29T03:58:35;1.53;;;1.43;;
6679;SDS011;3376;42.664;23.346;2024-03-29T04:02:01;2.93;;;1.40;;
6679;SDS011;3376;42.664;23.346;2024-03-29T04:05:26;2.43;;;1.53;;
6679;SDS011;3376;42.664;23.346;2024-03-29T04:08:52;5.87;;;1.27;;
6679;SDS011;3376;42.664;23.346;2024-03-29T04:12:17;1.83;;;1.00;;
6679;SDS011;3376;42.664;23.346;2024-03-29T04:15:42;3.73;;;1.27;;
6679;SDS011;3376;42.664;23.346;2024-03-29T04:19:07;3.67;;;1.53;;
6679;SDS011;3376;42.664;23.346;2024-03-29T04:22:34;2.07;;;1.53;;
6679;SDS011;3376;42.664;23.346;2024-03-29T04:25:59;2.90;;;1.80;;
6679;SDS011;3376;42.664;23.346;2024-03-29T04:29:29;1.67;;;1.50;;
6679;SDS011;3376;42.664;23.346;2024-03-29T04:32:55;1.57;;;1.43;;
6679;SDS011;3376;42.664;23.346;2024-03-29T04:36:21;4.17;;;1.27;;
6679;SDS011;3376;42.664;23.346;2024-03-29T04:39:48;4.57;;;1.73;;
6679;SDS011;3376;42.664;23.346;2024-03-29T04:43:14;5.63;;;2.43;;
6679;SDS011;3376;42.664;23.346;2024-03-29T04:46:40;11.50;;;4.23;;
6679;SDS011;3376;42.664;23.346;2024-03-29T04:50:08;7.30;;;3.60;;
6679;SDS011;3376;42.664;23.346;2024-03-29T04:53:35;4.73;;;2.73;;
6679;SDS011;3376;42.664;23.346;2024-03-29T04:57:02;11.10;;;2.77;;
6679;SDS011;3376;42.664;23.346;2024-03-29T05:00:28;12.17;;;8.07;;
6679;SDS011;3376;42.664;23.346;2024-03-29T05:03:54;10.10;;;2.87;;
6679;SDS011;3376;42.664;23.346;2024-03-29T05:07:24;3.43;;;2.10;;
6679;SDS011;3376;42.664;23.346;2024-03-29T05:10:50;9.10;;;3.60;;
6679;SDS011;3376;42.664;23.346;2024-03-29T05:14:20;5.73;;;2.63;;
6679;SDS011;3376;42.664;23.346;2024-03-29T05:17:46;6.63;;;6.03;;
6679;SDS011;3376;42.664;23.346;2024-03-29T05:21:12;7.40;;;4.00;;
6679;SDS011;3376;42.664;23.346;2024-03-29T05:24:37;6.63;;;2.47;;
6679;SDS011;3376;42.664;23.346;2024-03-29T05:28:03;3.57;;;2.60;;
6679;SDS011;3376;42.664;23.346;2024-03-29T05:31:32;6.80;;;2.50;;
6679;SDS011;3376;42.664;23.346;2024-03-29T05:34:59;6.97;;;2.80;;
6679;SDS011;3376;42.664;23.346;2024-03-29T05:38:25;5.67;;;2.90;;
6679;SDS011;3376;42.664;23.346;2024-03-29T05:41:51;5.73;;;2.67;;
6679;SDS011;3376;42.664;23.346;2024-03-29T05:45:22;4.77;;;2.37;;
6679;SDS011;3376;42.664;23.346;2024-03-29T05:48:50;7.67;;;2.30;;
6679;SDS011;3376;42.664;23.346;2024-03-29T05:52:18;8.70;;;2.13;;
6679;SDS011;3376;42.664;23.346;2024-03-29T05:55:44;12.37;;;3.33;;
6679;SDS011;3376;42.664;23.346;2024-03-29T05:59:09;10.90;;;4.07;;
6679;SDS011;3376;42.664;23.346;2024-03-29T06:02:35;12.70;;;3.33;;
6679;SDS011;3376;42.664;23.346;2024-03-29T06:06:06;8.97;;;2.17;;
6679;SDS011;3376;42.664;23.346;2024-03-29T06:09:33;1.53;;;1.20;;
6679;SDS011;3376;42.664;23.346;2024-03-29T06:12:59;4.40;;;1.63;;
6679;SDS011;3376;42.664;23.346;2024-03-29T06:16:42;10.00;;;2.47;;
6679;SDS011;3376;42.664;23.346;2024-03-29T06:20:07;7.60;;;2.00;;
6679;SDS011;3376;42.664;23.346;2024-03-29T06:23:35;5.87;;;2.67;;
6679;SDS011;3376;42.664;23.346;2024-03-29T06:27:02;7.97;;;1.83;;
6679;SDS011;3376;42.664;23.346;2024-03-29T06:30:35;7.20;;;2.00;;
6679;SDS011;3376;42.664;23.346;2024-03-29T06:34:01;5.10;;;1.93;;
6679;SDS011;3376;42.664;23.346;2024-03-29T06:37:32;5.27;;;1.90;;
6679;SDS011;3376;42.664;23.346;2024-03-29T06:41:00;2.90;;;1.80;;
6679;SDS011;3376;42.664;23.346;2024-03-29T06:44:27;9.33;;;2.20;;
6679;SDS011;3376;42.664;23.346;2024-03-29T06:47:54;3.70;;;1.50;;
6679;SDS011;3376;42.664;23.346;2024-03-29T06:51:20;3.40;;;1.27;;
6679;SDS011;3376;42.664;23.346;2024-03-29T06:54:48;5.67;;;1.30;;
6679;SDS011;3376;42.664;23.346;2024-03-29T06:58:16;2.47;;;0.90;;
6679;SDS011;3376;42.664;23.346;2024-03-29T07:01:43;2.47;;;1.13;;
6679;SDS011;3376;42.664;23.346;2024-03-29T07:05:10;2.33;;;0.80;;
6679;SDS011;3376;42.664;23.346;2024-03-29T07:08:41;1.53;;;0.80;;
6679;SDS011;3376;42.664;23.346;2024-03-29T07:12:09;3.47;;;0.90;;
6679;SDS011;3376;42.664;23.346;2024-03-29T07:15:41;1.27;;;0.90;;
6679;SDS011;3376;42.664;23.346;2024-03-29T07:19:15;4.13;;;1.27;;
6679;SDS011;3376;42.664;23.346;2024-03-29T07:22:42;4.20;;;1.30;;
6679;SDS011;3376;42.664;23.346;2024-03-29T07:26:09;1.60;;;1.00;;
6679;SDS011;3376;42.664;23.346;2024-03-29T07:29:43;1.70;;;0.70;;
6679;SDS011;3376;42.664;23.346;2024-03-29T07:33:09;4.17;;;2.20;;
6679;SDS011;3376;42.664;23.346;2024-03-29T07:36:39;1.23;;;1.10;;
6679;SDS011;3376;42.664;23.346;2024-03-29T07:40:06;1.83;;;0.97;;
6679;SDS011;3376;42.664;23.346;2024-03-29T07:43:50;3.97;;;1.13;;
6679;SDS011;3376;42.664;23.346;2024-03-29T07:47:16;2.13;;;0.90;;
6679;SDS011;3376;42.664;23.346;2024-03-29T07:50:45;2.73;;;1.10;;
6679;SDS011;3376;42.664;23.346;2024-03-29T07:54:11;1.30;;;0.90;;
6679;SDS011;3376;42.664;23.346;2024-03-29T07:57:37;4.47;;;1.63;;
6679;SDS011;3376;42.664;23.346;2024-03-29T08:01:04;3.17;;;1.50;;
6679;SDS011;3376;42.664;23.346;2024-03-29T08:04:30;2.50;;;1.20;;
6679;SDS011;3376;42.664;23.346;2024-03-29T08:07:55;2.37;;;1.30;;
6679;SDS011;3376;42.664;23.346;2024-03-29T08:11:21;1.20;;;1.10;;
6679;SDS011;3376;42.664;23.346;2024-03-29T08:14:49;4.47;;;1.03;;
6679;SDS011;3376;42.664;23.346;2024-03-29T08:18:16;1.17;;;1.07;;
6679;SDS011;3376;42.664;23.346;2024-03-29T08:21:41;1.07;;;0.90;;
6679;SDS011;3376;42.664;23.346;2024-03-29T08:25:07;1.73;;;0.87;;
6679;SDS011;3376;42.664;23.346;2024-03-29T08:28:33;4.10;;;0.90;;
6679;SDS011;3376;42.664;23.346;2024-03-29T08:31:59;2.10;;;1.00;;
6679;SDS011;3376;42.664;23.346;2024-03-29T08:35:29;2.10;;;0.80;;
6679;SDS011;3376;42.664;23.346;2024-03-29T08:38:55;3.63;;;1.17;;
6679;SDS011;3376;42.664;23.346;2024-03-29T08:42:22;1.87;;;1.13;;
6679;SDS011;3376;42.664;23.346;2024-03-29T08:45:48;1.97;;;1.00;;
6679;SDS011;3376;42.664;23.346;2024-03-29T08:49:14;3.70;;;3.50;;
6679;SDS011;3376;42.664;23.346;2024-03-29T08:52:47;2.20;;;1.17;;
6679;SDS011;3376;42.664;23.346;2024-03-29T08:56:13;2.23;;;0.97;;
6679;SDS011;3376;42.664;23.346;2024-03-29T08:59:40;3.63;;;1.90;;
6679;SDS011;3376;42.664;23.346;2024-03-29T09:03:08;2.00;;;0.90;;
6679;SDS011;3376;42.664;23.346;2024-03-29T09:06:36;2.00;;;0.70;;
6679;SDS011;3376;42.664;23.346;2024-03-29T09:10:04;3.23;;;3.00;;
6679;SDS011;3376;42.664;23.346;2024-03-29T09:13:31;2.00;;;1.77;;
6679;SDS011;3376;42.664;23.346;2024-03-29T09:16:56;2.53;;;1.47;;
6679;SDS011;3376;42.664;23.346;2024-03-29T09:20:26;2.50;;;1.07;;
6679;SDS011;3376;42.664;23.346;2024-03-29T09:23:53;2.30;;;1.07;;
6679;SDS011;3376;42.664;23.346;2024-03-29T09:27:20;0.80;;;0.80;;
6679;SDS011;3376;42.664;23.346;2024-03-29T09:30:46;2.13;;;2.03;;
6679;SDS011;3376;42.664;23.346;2024-03-29T09:34:12;1.52;;;0.80;;
6679;SDS011;3376;42.664;23.346;2024-03-29T09:37:38;2.60;;;1.08;;
6679;SDS011;3376;42.664;23.346;2024-03-29T09:41:06;2.08;;;0.90;;
6679;SDS011;3376;42.664;23.346;2024-03-29T09:44:41;1.63;;;0.93;;
6679;SDS011;3376;42.664;23.346;2024-03-29T09:48:09;0.90;;;0.80;;
6679;SDS011;3376;42.664;23.346;2024-03-29T09:51:37;2.65;;;0.90;;
6679;SDS011;3376;42.664;23.346;2024-03-29T09:55:05;1.92;;;0.82;;
6679;SDS011;3376;42.664;23.346;2024-03-29T09:58:31;2.40;;;0.93;;
6679;SDS011;3376;42.664;23.346;2024-03-29T10:01:59;1.70;;;1.45;;
6679;SDS011;3376;42.664;23.346;2024-03-29T10:05:26;2.35;;;1.00;;
6679;SDS011;3376;42.664;23.346;2024-03-29T10:08:53;3.47;;;1.10;;
6679;SDS011;3376;42.664;23.346;2024-03-29T10:12:22;3.35;;;1.20;;
6679;SDS011;3376;42.664;23.346;2024-03-29T10:15:48;4.05;;;1.00;;
6679;SDS011;3376;42.664;23.346;2024-03-29T10:19:16;3.83;;;3.42;;
6679;SDS011;3376;42.664;23.346;2024-03-29T10:22:43;6.05;;;1.25;;
6679;SDS011;3376;42.664;23.346;2024-03-29T10:26:13;2.40;;;1.10;;
6679;SDS011;3376;42.664;23.346;2024-03-29T10:29:40;5.45;;;0.98;;
6679;SDS011;3376;42.664;23.346;2024-03-29T10:33:06;3.22;;;1.15;;
6679;SDS011;3376;42.664;23.346;2024-03-29T10:36:33;1.95;;;1.13;;
6679;SDS011;3376;42.664;23.346;2024-03-29T10:40:03;2.45;;;1.42;;
6679;SDS011;3376;42.664;23.346;2024-03-29T10:43:31;1.42;;;1.20;;
6679;SDS011;3376;42.664;23.346;2024-03-29T10:46:59;1.20;;;1.10;;
6679;SDS011;3376;42.664;23.346;2024-03-29T10:50:27;2.10;;;1.83;;
6679;SDS011;3376;42.664;23.346;2024-03-29T10:53:55;3.40;;;3.08;;
6679;SDS011;3376;42.664;23.346;2024-03-29T10:57:24;2.33;;;1.50;;
6679;SDS011;3376;42.664;23.346;2024-03-29T11:00:53;1.65;;;0.93;;
6679;SDS011;3376;42.664;23.346;2024-03-29T11:04:22;5.13;;;1.42;;
6679;SDS011;3376;42.664;23.346;2024-03-29T11:07:55;1.67;;;1.35;;
6679;SDS011;3376;42.664;23.346;2024-03-29T11:11:29;2.75;;;1.25;;
6679;SDS011;3376;42.664;23.346;2024-03-29T11:14:59;4.15;;;1.40;;
6679;SDS011;3376;42.664;23.346;2024-03-29T11:18:27;3.28;;;1.52;;
6679;SDS011;3376;42.664;23.346;2024-03-29T11:21:54;2.22;;;1.20;;
6679;SDS011;3376;42.664;23.346;2024-03-29T11:25:22;3.15;;;1.55;;
6679;SDS011;3376;42.664;23.346;2024-03-29T11:28:48;3.60;;;1.90;;
6679;SDS011;3376;42.664;23.346;2024-03-29T11:32:15;5.40;;;2.40;;
6679;SDS011;3376;42.664;23.346;2024-03-29T11:35:58;2.20;;;1.27;;
6679;SDS011;3376;42.664;23.346;2024-03-29T11:39:33;4.72;;;1.42;;
6679;SDS011;3376;42.664;23.346;2024-03-29T11:43:03;3.83;;;3.53;;
6679;SDS011;3376;42.664;23.346;2024-03-29T11:46:29;3.90;;;1.48;;
6679;SDS011;3376;42.664;23.346;2024-03-29T11:49:57;3.53;;;1.80;;
6679;SDS011;3376;42.664;23.346;2024-03-29T11:53:25;2.17;;;2.08;;
6679;SDS011;3376;42.664;23.346;2024-03-29T11:56:53;5.13;;;1.95;;
6679;SDS011;3376;42.664;23.346;2024-03-29T12:00:21;2.33;;;1.13;;
6679;SDS011;3376;42.664;23.346;2024-03-29T12:03:47;6.25;;;1.55;;
6679;SDS011;3376;42.664;23.346;2024-03-29T12:07:12;3.85;;;1.08;;
6679;SDS011;3376;42.664;23.346;2024-03-29T12:10:39;2.28;;;1.30;;
6679;SDS011;3376;42.664;23.346;2024-03-29T12:14:13;1.92;;;1.30;;
6679;SDS011;3376;42.664;23.346;2024-03-29T12:17:40;3.72;;;1.25;;
6679;SDS011;3376;42.664;23.346;2024-03-29T12:21:06;2.97;;;1.20;;
6679;SDS011;3376;42.664;23.346;2024-03-29T12:24:32;2.42;;;1.08;;
6679;SDS011;3376;42.664;23.346;2024-03-29T12:27:58;5.63;;;1.80;;
6679;SDS011;3376;42.664;23.346;2024-03-29T12:31:27;3.38;;;1.20;;
6679;SDS011;3376;42.664;23.346;2024-03-29T12:34:55;5.95;;;2.33;;
6679;SDS011;3376;42.664;23.346;2024-03-29T12:38:22;8.60;;;1.85;;
6679;SDS011;3376;42.664;23.346;2024-03-29T12:41:50;2.40;;;1.15;;
6679;SDS011;3376;42.664;23.346;2024-03-29T12:45:18;2.05;;;1.20;;
6679;SDS011;3376;42.664;23.346;2024-03-29T12:48:46;1.73;;;0.90;;
6679;SDS011;3376;42.664;23.346;2024-03-29T12:52:13;1.50;;;1.23;;
6679;SDS011;3376;42.664;23.346;2024-03-29T12:55:40;2.40;;;1.00;;
6679;SDS011;3376;42.664;23.346;2024-03-29T12:59:07;2.38;;;1.33;;
6679;SDS011;3376;42.664;23.346;2024-03-29T13:02:35;2.83;;;0.95;;
6679;SDS011;3376;42.664;23.346;2024-03-29T13:06:04;3.15;;;0.85;;
6679;SDS011;3376;42.664;23.346;2024-03-29T13:09:30;2.75;;;0.90;;
6679;SDS011;3376;42.664;23.346;2024-03-29T13:12:56;3.47;;;1.38;;
6679;SDS011;3376;42.664;23.346;2024-03-29T13:16:22;2.38;;;1.23;;
6679;SDS011;3376;42.664;23.346;2024-03-29T13:19:48;1.70;;;1.02;;
6679;SDS011;3376;42.664;23.346;2024-03-29T13:23:16;2.55;;;0.85;;
6679;SDS011;3376;42.664;23.346;2024-03-29T13:26:43;1.98;;;1.10;;
6679;SDS011;3376;42.664;23.346;2024-03-29T13:30:11;1.80;;;1.33;;
6679;SDS011;3376;42.664;23.346;2024-03-29T13:33:37;3.38;;;1.17;;
6679;SDS011;3376;42.664;23.346;2024-03-29T13:37:04;4.72;;;1.35;;
6679;SDS011;3376;42.664;23.346;2024-03-29T13:40:31;2.53;;;0.98;;
6679;SDS011;3376;42.664;23.346;2024-03-29T13:43:57;3.35;;;1.13;;
6679;SDS011;3376;42.664;23.346;2024-03-29T13:47:23;8.07;;;1.50;;
6679;SDS011;3376;42.664;23.346;2024-03-29T13:50:48;1.02;;;0.93;;
6679;SDS011;3376;42.664;23.346;2024-03-29T13:54:14;2.70;;;1.38;;
6679;SDS011;3376;42.664;23.346;2024-03-29T13:57:42;1.23;;;1.00;;
6679;SDS011;3376;42.664;23.346;2024-03-29T14:01:08;3.97;;;1.38;;
6679;SDS011;3376;42.664;23.346;2024-03-29T14:04:35;2.40;;;0.82;;
6679;SDS011;3376;42.664;23.346;2024-03-29T14:08:03;3.25;;;0.98;;
6679;SDS011;3376;42.664;23.346;2024-03-29T14:11:28;5.45;;;1.20;;
6679;SDS011;3376;42.664;23.346;2024-03-29T14:14:58;4.03;;;0.95;;
6679;SDS011;3376;42.664;23.346;2024-03-29T14:18:24;2.40;;;0.80;;
6679;SDS011;3376;42.664;23.346;2024-03-29T14:21:52;3.05;;;1.00;;
6679;SDS011;3376;42.664;23.346;2024-03-29T14:25:21;7.13;;;1.08;;
6679;SDS011;3376;42.664;23.346;2024-03-29T14:28:49;4.88;;;1.20;;
6679;SDS011;3376;42.664;23.346;2024-03-29T14:32:16;3.03;;;1.05;;
6679;SDS011;3376;42.664;23.346;2024-03-29T14:35:44;1.40;;;0.90;;
6679;SDS011;3376;42.664;23.346;2024-03-29T14:39:11;4.05;;;1.05;;
6679;SDS011;3376;42.664;23.346;2024-03-29T14:42:40;3.20;;;2.38;;
6679;SDS011;3376;42.664;23.346;2024-03-29T14:46:06;3.53;;;2.22;;
6679;SDS011;3376;42.664;23.346;2024-03-29T14:49:33;3.03;;;1.10;;
6679;SDS011;3376;42.664;23.346;2024-03-29T14:52:59;4.65;;;1.25;;
6679;SDS011;3376;42.664;23.346;2024-03-29T14:56:28;2.40;;;1.10;;
6679;SDS011;3376;42.664;23.346;2024-03-29T14:59:56;3.67;;;1.02;;
6679;SDS011;3376;42.664;23.346;2024-03-29T15:03:22;1.85;;;1.00;;
6679;SDS011;3376;42.664;23.346;2024-03-29T15:06:50;4.95;;;1.20;;
6679;SDS011;3376;42.664;23.346;2024-03-29T15:10:19;1.52;;;0.98;;
6679;SDS011;3376;42.664;23.346;2024-03-29T15:13:45;1.63;;;1.15;;
6679;SDS011;3376;42.664;23.346;2024-03-29T15:17:11;3.22;;;1.10;;
6679;SDS011;3376;42.664;23.346;2024-03-29T15:20:37;1.98;;;1.45;;
6679;SDS011;3376;42.664;23.346;2024-03-29T15:24:08;2.15;;;1.55;;
6679;SDS011;3376;42.664;23.346;2024-03-29T15:27:34;1.45;;;1.10;;
6679;SDS011;3376;42.664;23.346;2024-03-29T15:31:18;4.45;;;1.20;;
6679;SDS011;3376;42.664;23.346;2024-03-29T15:34:44;4.80;;;1.08;;
6679;SDS011;3376;42.664;23.346;2024-03-29T15:38:12;7.18;;;1.40;;
6679;SDS011;3376;42.664;23.346;2024-03-29T15:41:45;2.13;;;1.20;;
6679;SDS011;3376;42.664;23.346;2024-03-29T15:45:11;4.97;;;1.20;;
6679;SDS011;3376;42.664;23.346;2024-03-29T15:48:37;7.93;;;1.60;;
6679;SDS011;3376;42.664;23.346;2024-03-29T15:52:03;3.30;;;1.00;;
6679;SDS011;3376;42.664;23.346;2024-03-29T15:55:31;2.10;;;1.13;;
6679;SDS011;3376;42.664;23.346;2024-03-29T15:59:00;2.17;;;1.30;;
6679;SDS011;3376;42.664;23.346;2024-03-29T16:02:27;2.43;;;2.00;;
6679;SDS011;3376;42.664;23.346;2024-03-29T16:05:53;7.83;;;1.40;;
6679;SDS011;3376;42.664;23.346;2024-03-29T16:09:18;5.77;;;1.20;;
6679;SDS011;3376;42.664;23.346;2024-03-29T16:12:47;2.97;;;1.23;;
6679;SDS011;3376;42.664;23.346;2024-03-29T16:16:15;3.43;;;0.90;;
6679;SDS011;3376;42.664;23.346;2024-03-29T16:19:41;2.63;;;1.17;;
6679;SDS011;3376;42.664;23.346;2024-03-29T16:23:06;6.53;;;1.53;;
6679;SDS011;3376;42.664;23.346;2024-03-29T16:26:32;2.10;;;1.20;;
6679;SDS011;3376;42.664;23.346;2024-03-29T16:29:59;1.63;;;1.20;;
6679;SDS011;3376;42.664;23.346;2024-03-29T16:33:25;2.87;;;1.23;;
6679;SDS011;3376;42.664;23.346;2024-03-29T16:36:51;3.10;;;1.60;;
6679;SDS011;3376;42.664;23.346;2024-03-29T16:40:17;6.83;;;2.33;;
6679;SDS011;3376;42.664;23.346;2024-03-29T16:43:42;3.23;;;1.23;;
6679;SDS011;3376;42.664;23.346;2024-03-29T16:47:09;3.47;;;2.30;;
6679;SDS011;3376;42.664;23.346;2024-03-29T16:50:36;9.57;;;4.43;;
6679;SDS011;3376;42.664;23.346;2024-03-29T16:54:04;3.97;;;2.03;;
6679;SDS011;3376;42.664;23.346;2024-03-29T16:57:31;4.07;;;1.83;;
6679;SDS011;3376;42.664;23.346;2024-03-29T17:00:57;8.47;;;2.13;;
6679;SDS011;3376;42.664;23.346;2024-03-29T17:04:23;7.07;;;2.20;;
6679;SDS011;3376;42.664;23.346;2024-03-29T17:07:49;2.60;;;2.23;;
6679;SDS011;3376;42.664;23.346;2024-03-29T17:11:18;6.47;;;1.83;;
6679;SDS011;3376;42.664;23.346;2024-03-29T17:14:45;11.50;;;2.43;;
6679;SDS011;3376;42.664;23.346;2024-03-29T17:18:15;2.97;;;1.93;;
6679;SDS011;3376;42.664;23.346;2024-03-29T17:21:41;7.37;;;2.90;;
6679;SDS011;3376;42.664;23.346;2024-03-29T17:25:07;6.57;;;2.30;;
6679;SDS011;3376;42.664;23.346;2024-03-29T17:28:33;17.87;;;3.47;;
6679;SDS011;3376;42.664;23.346;2024-03-29T17:32:00;10.07;;;3.07;;
6679;SDS011;3376;42.664;23.346;2024-03-29T17:35:30;11.87;;;6.20;;
6679;SDS011;3376;42.664;23.346;2024-03-29T17:39:00;13.00;;;4.63;;
6679;SDS011;3376;42.664;23.346;2024-03-29T17:42:27;11.77;;;4.37;;
6679;SDS011;3376;42.664;23.346;2024-03-29T17:45:52;13.40;;;3.80;;
6679;SDS011;3376;42.664;23.346;2024-03-29T17:49:17;13.80;;;4.23;;
6679;SDS011;3376;42.664;23.346;2024-03-29T17:52:45;18.57;;;6.63;;
6679;SDS011;3376;42.664;23.346;2024-03-29T17:56:12;83.87;;;29.27;;
6679;SDS011;3376;42.664;23.346;2024-03-29T17:59:38;9.67;;;4.80;;
6679;SDS011;3376;42.664;23.346;2024-03-29T18:03:03;11.83;;;4.73;;
6679;SDS011;3376;42.664;23.346;2024-03-29T18:06:30;20.07;;;6.50;;
6679;SDS011;3376;42.664;23.346;2024-03-29T18:09:55;15.57;;;9.40;;
6679;SDS011;3376;42.664;23.346;2024-03-29T18:13:22;32.57;;;12.87;;
6679;SDS011;3376;42.664;23.346;2024-03-29T18:16:47;35.37;;;15.50;;
6679;SDS011;3376;42.664;23.346;2024-03-29T18:20:13;22.77;;;11.30;;
6679;SDS011;3376;42.664;23.346;2024-03-29T18:23:37;24.83;;;7.20;;
6679;SDS011;3376;42.664;23.346;2024-03-29T18:27:04;21.10;;;6.97;;
6679;SDS011;3376;42.664;23.346;2024-03-29T18:30:30;10.80;;;6.73;;
6679;SDS011;3376;42.664;23.346;2024-03-29T18:33:59;13.47;;;6.40;;
6679;SDS011;3376;42.664;23.346;2024-03-29T18:37:24;12.63;;;5.27;;
6679;SDS011;3376;42.664;23.346;2024-03-29T18:40:53;16.63;;;5.07;;
6679;SDS011;3376;42.664;23.346;2024-03-29T18:44:19;31.90;;;7.37;;
6679;SDS011;3376;42.664;23.346;2024-03-29T18:47:48;11.30;;;5.73;;
6679;SDS011;3376;42.664;23.346;2024-03-29T18:51:14;9.93;;;5.70;;
6679;SDS011;3376;42.664;23.346;2024-03-29T18:54:40;13.40;;;5.50;;
6679;SDS011;3376;42.664;23.346;2024-03-29T18:58:06;9.27;;;4.60;;
6679;SDS011;3376;42.664;23.346;2024-03-29T19:01:32;7.57;;;3.50;;
6679;SDS011;3376;42.664;23.346;2024-03-29T19:05:00;8.43;;;3.17;;
6679;SDS011;3376;42.664;23.346;2024-03-29T19:08:25;3.90;;;3.43;;
6679;SDS011;3376;42.664;23.346;2024-03-29T19:11:53;5.37;;;2.77;;
6679;SDS011;3376;42.664;23.346;2024-03-29T19:15:19;5.37;;;3.07;;
6679;SDS011;3376;42.664;23.346;2024-03-29T19:18:47;10.67;;;3.83;;
6679;SDS011;3376;42.664;23.346;2024-03-29T19:22:16;9.27;;;2.67;;
6679;SDS011;3376;42.664;23.346;2024-03-29T19:25:41;8.00;;;3.10;;
6679;SDS011;3376;42.664;23.346;2024-03-29T19:29:09;5.40;;;3.97;;
6679;SDS011;3376;42.664;23.346;2024-03-29T19:32:39;2.80;;;2.30;;
6679;SDS011;3376;42.664;23.346;2024-03-29T19:36:04;5.90;;;3.70;;
6679;SDS011;3376;42.664;23.346;2024-03-29T19:39:34;7.10;;;4.77;;
6679;SDS011;3376;42.664;23.346;2024-03-29T19:42:59;7.63;;;4.17;;
6679;SDS011;3376;42.664;23.346;2024-03-29T19:46:28;9.93;;;4.57;;
6679;SDS011;3376;42.664;23.346;2024-03-29T19:49:52;7.80;;;5.30;;
6679;SDS011;3376;42.664;23.346;2024-03-29T19:53:19;13.10;;;5.27;;
6679;SDS011;3376;42.664;23.346;2024-03-29T19:56:46;11.47;;;6.13;;
6679;SDS011;3376;42.664;23.346;2024-03-29T20:00:13;14.47;;;4.73;;
6679;SDS011;3376;42.664;23.346;2024-03-29T20:03:39;8.13;;;5.30;;
6679;SDS011;3376;42.664;23.346;2024-03-29T20:07:05;9.40;;;5.10;;
6679;SDS011;3376;42.664;23.346;2024-03-29T20:10:35;10.80;;;5.83;;
6679;SDS011;3376;42.664;23.346;2024-03-29T20:14:01;7.90;;;4.90;;
6679;SDS011;3376;42.664;23.346;2024-03-29T20:17:28;6.60;;;5.07;;
6679;SDS011;3376;42.664;23.346;2024-03-29T20:20:54;27.30;;;16.87;;
6679;SDS011;3376;42.664;23.346;2024-03-29T20:24:19;12.40;;;5.40;;
6679;SDS011;3376;42.664;23.346;2024-03-29T20:27:46;12.33;;;5.40;;
6679;SDS011;3376;42.664;23.346;2024-03-29T20:31:16;10.63;;;5.33;;
6679;SDS011;3376;42.664;23.346;2024-03-29T20:34:41;14.10;;;5.40;;
6679;SDS011;3376;42.664;23.346;2024-03-29T20:38:07;15.43;;;5.37;;
6679;SDS011;3376;42.664;23.346;2024-03-29T20:41:34;11.80;;;5.70;;
6679;SDS011;3376;42.664;23.346;2024-03-29T20:45:00;12.90;;;5.33;;
6679;SDS011;3376;42.664;23.346;2024-03-29T20:48:32;9.47;;;5.77;;
6679;SDS011;3376;42.664;23.346;2024-03-29T20:52:01;17.87;;;6.73;;
6679;SDS011;3376;42.664;23.346;2024-03-29T20:55:34;9.53;;;5.70;;
6679;SDS011;3376;42.664;23.346;2024-03-29T20:59:01;12.50;;;5.70;;
6679;SDS011;3376;42.664;23.346;2024-03-29T21:02:32;7.73;;;5.03;;
6679;SDS011;3376;42.664;23.346;2024-03-29T21:06:16;15.20;;;6.13;;